Terminal Aerodrome Forecast
Issued by NWS Wakefield, VA

Home | Current Version | Previous Version | Text Only | Print | Product List | Glossary On
Versions: 1 2 3 4 5 6 7 8 9 10 11 12 13 14 15 16 17 18 19
000
FTUS41 KAKQ 010500 RRA
TAFRIC
TAF
KRIC 010542Z 0106/0206 VRB04KT 5SM BR BKN020 BKN080
     FM010800 00000KT 2SM BR SCT005 BKN020
     FM011300 03004KT 5SM BR BKN015
     FM011400 04005KT P6SM SCT020 BKN050
     FM020000 10003KT P6SM SCT040 BKN080=

USA.gov is the U.S. government's official web portal to all federal, state and local government web resources and services.